Shanghai City, Illinois
Current Conditions -  °F | °C
As of 11:15 PM on Monday 22 Dec 2014 (Local Time) from KGBG Reporting Station
Moderate Rain Moderate Rain  
Wind Chill: 42°   Ceiling: 400
Heat Index: 44°   Visibility: 7mi
Dew Point: 44°   Wind: 5mph
Humidity: 99%   Direction: 150°SSE
Pressure: 29.47"   Gusts: NA
Location:  41.0552°N, 90.5431°W
Report Text: KGBG 230515Z AUTO 15004KT 7SM RA OVC004 07/07 A2947 RMK AO2 P0002 T00670066
Loading
Personal Weather Stations






























Interactive Weather Map New forecast layout! Learn more

10-Day Weather Forecast

Advertisements
Track Severe Weather on mobile